createdAt,value
2022-09-24T00:00:52.452Z,54.30
2022-09-24T00:05:53.920Z,53.90
2022-09-24T00:10:57.228Z,56.20
2022-09-24T00:16:02.465Z,61.50
2022-09-24T00:21:24.531Z,82.70
2022-09-24T00:26:45.349Z,87.90
2022-09-24T00:31:47.860Z,64.00
2022-09-24T00:36:49.431Z,64.40
2022-09-24T00:41:51.013Z,65.80
2022-09-24T00:46:52.590Z,85.40
2022-09-24T00:56:57.935Z,52.30
2022-09-24T01:01:59.870Z,44.40
2022-09-24T01:07:01.611Z,39.90
2022-09-24T01:12:10.864Z,41.50
2022-09-24T01:17:34.384Z,40.00
2022-09-24T01:22:54.725Z,44.90
2022-09-24T01:28:05.239Z,43.00
2022-09-24T01:33:08.769Z,44.30
2022-09-24T01:38:15.175Z,42.50
2022-09-24T01:43:17.633Z,43.40
2022-09-24T01:48:21.910Z,45.40
2022-09-24T01:53:31.976Z,48.30
2022-09-24T01:58:37.016Z,44.00
2022-09-24T02:03:43.245Z,44.20
2022-09-24T02:08:46.426Z,48.40
2022-09-24T02:13:56.897Z,48.50
2022-09-24T02:19:00.479Z,45.80
2022-09-24T02:24:04.671Z,45.10
2022-09-24T02:29:06.500Z,45.80
2022-09-24T02:34:22.148Z,45.30
2022-09-24T02:39:23.710Z,46.10
2022-09-24T02:49:26.756Z,45.10
2022-09-24T02:54:28.263Z,46.00
2022-09-24T02:59:29.822Z,44.50
2022-09-24T03:04:31.902Z,44.30
2022-09-24T03:09:33.372Z,42.10
2022-09-24T03:14:34.999Z,41.80
2022-09-24T03:19:36.504Z,33.40
2022-09-24T03:24:37.995Z,31.70
2022-09-24T03:35:01.394Z,31.30
2022-09-24T03:40:05.418Z,33.30
2022-09-24T03:45:07.477Z,30.60
2022-09-24T03:50:11.858Z,28.80
2022-09-24T03:55:13.479Z,29.50
2022-09-24T04:05:16.920Z,29.40
2022-09-24T04:10:18.429Z,30.40
2022-09-24T04:15:20.080Z,37.50
2022-09-24T04:20:23.070Z,34.40
2022-09-24T04:25:26.258Z,31.70
2022-09-24T04:30:28.494Z,29.00
2022-09-24T04:35:30.683Z,30.30
2022-09-24T04:40:32.539Z,32.20
2022-09-24T04:45:34.157Z,35.00
2022-09-24T04:50:35.640Z,45.90
2022-09-24T04:55:37.141Z,38.00
2022-09-24T05:00:38.860Z,38.80
2022-09-24T05:05:40.355Z,38.10
2022-09-24T05:15:57.391Z,35.20
2022-09-24T05:21:01.097Z,33.00
2022-09-24T05:26:21.441Z,34.20
2022-09-24T05:31:23.102Z,34.90
2022-09-24T05:36:27.031Z,37.90
2022-09-24T05:41:28.508Z,70.90
2022-09-24T05:46:30.167Z,42.60
2022-09-24T05:51:31.643Z,34.70
2022-09-24T05:56:33.211Z,32.90
2022-09-24T06:01:34.845Z,33.20
2022-09-24T06:06:36.410Z,34.30
2022-09-24T06:16:42.518Z,55.70
2022-09-24T06:26:45.411Z,32.20
2022-09-24T06:36:48.317Z,30.30
2022-09-24T06:46:52.947Z,35.10
2022-09-24T06:56:55.819Z,37.60
2022-09-24T07:01:59.394Z,33.00
2022-09-24T07:07:19.682Z,28.10
2022-09-24T07:12:21.341Z,27.30
2022-09-24T07:17:23.078Z,27.20
2022-09-24T07:22:24.765Z,44.20
2022-09-24T07:27:26.406Z,30.80
2022-09-24T07:32:30.043Z,30.70
2022-09-24T07:37:33.127Z,27.70
2022-09-24T07:42:34.664Z,27.10
2022-09-24T07:47:36.538Z,28.90
2022-09-24T07:52:37.974Z,31.10
2022-09-24T07:57:39.484Z,29.60
2022-09-24T08:02:40.925Z,27.50
2022-09-24T08:07:42.774Z,29.90
2022-09-24T08:12:44.296Z,25.00
2022-09-24T08:17:46.020Z,24.70
2022-09-24T08:22:47.607Z,22.40
2022-09-24T08:27:49.097Z,20.20
2022-09-24T08:32:50.579Z,17.80
2022-09-24T08:37:55.153Z,19.30
2022-09-24T08:43:08.141Z,18.00
2022-09-24T08:48:13.807Z,16.10
2022-09-24T08:53:20.062Z,13.70
2022-09-24T08:58:41.866Z,11.10
2022-09-24T09:03:47.569Z,10.50
2022-09-24T09:09:06.250Z,6.50
2022-09-24T09:14:32.430Z,8.20
2022-09-24T09:19:34.865Z,9.20
2022-09-24T09:24:41.772Z,7.90
2022-09-24T09:29:46.192Z,9.30
2022-09-24T09:34:54.359Z,6.80
2022-09-24T09:39:55.959Z,6.90
2022-09-24T09:44:59.751Z,10.70
2022-09-24T09:50:05.926Z,8.90
2022-09-24T09:55:07.373Z,8.90
2022-09-24T10:00:23.396Z,8.20
2022-09-24T10:05:28.663Z,6.30
2022-09-24T10:10:30.286Z,7.10
2022-09-24T10:15:31.859Z,6.00
2022-09-24T10:20:33.852Z,4.80
2022-09-24T10:25:36.430Z,5.00
2022-09-24T10:30:48.017Z,4.20
2022-09-24T10:35:49.695Z,6.40
2022-09-24T10:40:51.482Z,5.90
2022-09-24T10:46:08.326Z,6.10
2022-09-24T10:51:11.837Z,6.20
2022-09-24T10:56:13.283Z,6.30
2022-09-24T11:01:33.565Z,6.60
2022-09-24T11:06:53.799Z,5.50
2022-09-24T11:12:14.168Z,4.80
2022-09-24T11:17:26.466Z,3.80
2022-09-24T11:22:30.656Z,3.40
2022-09-24T11:27:35.039Z,2.50
2022-09-24T11:32:36.504Z,2.70
2022-09-24T11:37:54.252Z,3.60
2022-09-24T11:43:06.786Z,2.10
2022-09-24T11:48:08.370Z,1.90
2022-09-24T11:53:15.334Z,2.70
2022-09-24T11:58:34.919Z,3.10
2022-09-24T12:03:42.384Z,2.80
2022-09-24T12:08:49.695Z,3.60
2022-09-24T12:13:57.314Z,3.20
2022-09-24T12:19:03.732Z,2.70
2022-09-24T12:24:09.449Z,34.00
2022-09-24T12:29:36.113Z,5.70
2022-09-24T12:34:45.412Z,4.10
2022-09-24T12:39:58.152Z,4.30
2022-09-24T12:45:00.804Z,3.80
2022-09-24T12:50:04.921Z,5.40
2022-09-24T12:55:18.414Z,3.70
2022-09-24T13:00:31.743Z,4.10
2022-09-24T13:05:34.897Z,4.40
2022-09-24T13:10:36.789Z,3.20
2022-09-24T13:15:40.029Z,2.70
2022-09-24T13:20:49.226Z,3.00
2022-09-24T13:25:57.730Z,3.30
2022-09-24T13:30:59.297Z,3.80
2022-09-24T13:36:03.611Z,3.90
2022-09-24T13:41:24.389Z,3.40
2022-09-24T13:51:29.907Z,3.80
2022-09-24T13:56:31.845Z,3.80
2022-09-24T14:01:39.295Z,3.10
2022-09-24T14:06:42.766Z,3.70
2022-09-24T14:11:52.006Z,4.20
2022-09-24T14:16:55.128Z,4.40
2022-09-24T14:21:58.234Z,3.70
2022-09-24T14:27:17.634Z,4.00
2022-09-24T14:32:28.281Z,3.00
2022-09-24T14:42:41.897Z,4.40
2022-09-24T14:47:43.578Z,4.30
2022-09-24T14:52:55.196Z,3.80
2022-09-24T14:57:57.896Z,3.60
2022-09-24T15:03:11.828Z,4.20
2022-09-24T15:08:27.982Z,4.30
2022-09-24T15:13:36.678Z,4.60
2022-09-24T15:18:38.248Z,5.50
2022-09-24T15:23:39.836Z,4.90
2022-09-24T15:28:41.384Z,4.50
2022-09-24T15:33:42.897Z,4.40
2022-09-24T15:38:45.015Z,4.90
2022-09-24T15:43:46.613Z,5.00
2022-09-24T15:48:48.163Z,5.60
2022-09-24T15:53:50.346Z,5.40
2022-09-24T15:58:51.820Z,5.70
2022-09-24T16:03:54.326Z,6.00
2022-09-24T16:08:55.885Z,5.70
2022-09-24T16:13:57.463Z,7.60
2022-09-24T16:18:58.955Z,11.60
2022-09-24T16:24:00.798Z,19.40
2022-09-24T16:29:03.307Z,20.40
2022-09-24T16:34:05.121Z,24.10
2022-09-24T16:39:06.658Z,28.90
2022-09-24T16:44:11.448Z,34.80
2022-09-24T16:49:12.994Z,53.90
2022-09-24T16:54:14.955Z,66.60
2022-09-24T16:59:16.651Z,87.00
2022-09-24T17:04:18.302Z,72.20
2022-09-24T17:09:38.938Z,69.80
2022-09-24T17:14:40.483Z,81.20
2022-09-24T17:19:42.008Z,86.70
2022-09-24T17:24:43.558Z,93.80
2022-09-24T17:29:45.040Z,73.40
2022-09-24T17:34:46.570Z,53.00
2022-09-24T17:39:48.123Z,47.60
2022-09-24T17:44:49.666Z,56.00
2022-09-24T17:49:51.204Z,61.80
2022-09-24T17:54:52.737Z,50.30
2022-09-24T17:59:54.395Z,54.30
2022-09-24T18:04:55.940Z,50.10
2022-09-24T18:09:57.592Z,44.90
2022-09-24T18:14:59.145Z,37.20
2022-09-24T18:20:00.698Z,37.90
2022-09-24T18:25:06.119Z,70.00
2022-09-24T18:30:11.083Z,56.60
2022-09-24T18:35:12.731Z,49.40
2022-09-24T18:40:14.445Z,48.80
2022-09-24T18:45:16.307Z,43.10
2022-09-24T18:50:18.085Z,48.50
2022-09-24T18:55:26.328Z,48.50
2022-09-24T19:00:46.441Z,54.50
2022-09-24T19:05:48.916Z,48.20
2022-09-24T19:10:52.681Z,47.50
2022-09-24T19:15:54.286Z,49.00
2022-09-24T19:20:56.600Z,46.60
2022-09-24T19:26:02.523Z,50.10
2022-09-24T19:31:04.331Z,49.20
2022-09-24T19:36:06.298Z,51.60
2022-09-24T19:41:21.336Z,53.70
2022-09-24T19:46:24.444Z,58.20
2022-09-24T19:51:30.473Z,66.00
2022-09-24T19:56:33.900Z,77.70
2022-09-24T20:01:35.692Z,76.60
2022-09-24T20:06:38.157Z,61.60
2022-09-24T20:11:39.835Z,56.80
2022-09-24T20:16:44.563Z,70.10
2022-09-24T20:21:46.461Z,79.00
2022-09-24T20:27:06.853Z,67.30
2022-09-24T20:32:10.144Z,89.70
2022-09-24T20:37:12.071Z,63.70
2022-09-24T20:42:14.103Z,50.40
2022-09-24T20:47:22.616Z,50.40
2022-09-24T20:52:24.969Z,131.30
2022-09-24T20:57:27.367Z,72.90
2022-09-24T21:02:28.963Z,63.30
2022-09-24T21:07:30.557Z,61.20
2022-09-24T21:17:33.881Z,63.30
2022-09-24T21:22:35.801Z,61.70
2022-09-24T21:27:38.153Z,58.70
2022-09-24T21:32:41.463Z,57.70
2022-09-24T21:37:42.916Z,53.40
2022-09-24T21:42:47.126Z,39.20
2022-09-24T21:47:48.741Z,40.40
2022-09-24T21:52:52.007Z,39.70
2022-09-24T21:57:53.565Z,41.20
2022-09-24T22:02:55.233Z,40.80
2022-09-24T22:07:56.909Z,45.50
2022-09-24T22:18:01.008Z,48.90
2022-09-24T22:23:02.607Z,54.70
2022-09-24T22:28:04.336Z,52.60
2022-09-24T22:33:05.837Z,57.30
2022-09-24T22:38:07.329Z,60.50
2022-09-24T22:48:10.531Z,57.80
2022-09-24T22:53:12.056Z,83.10
2022-09-24T22:58:13.528Z,60.00
2022-09-24T23:08:16.419Z,48.60
2022-09-24T23:18:19.463Z,53.00
2022-09-24T23:23:20.976Z,51.60
2022-09-24T23:33:23.830Z,49.50
2022-09-24T23:43:27.935Z,43.80
2022-09-24T23:48:29.977Z,50.50
2022-09-24T23:53:31.836Z,49.20
2022-09-24T23:58:33.423Z,48.20
